Time;durP1;ratioP1;P1;durP2;ratioP2;P2;SDS_P1;SDS_P2;PMS_P1;PMS_P2;Temp;Humidity;BMP_temperature;BMP_pressure;BME280_temperature;BME280_humidity;BME280_pressure;Samples;Min_cycle;Max_cycle;Signal;HPM_P1;HPM_P2
2023/10/14 00:01:04;;;;;;;;;;;16.50;55.90;;;;;;4951315;28;87684;-44
2023/10/14 00:03:32;;;;;;;;;;;16.50;55.90;;;;;;4953728;28;87172;-41
2023/10/14 00:06:00;;;;;;;;;;;16.50;55.90;;;;;;4951986;28;88258;-44
2023/10/14 00:08:27;;;;;;;;;;;16.50;55.90;;;;;;4952341;28;88450;-49
2023/10/14 00:10:53;;;;;;;;;;;16.50;55.90;;;;;;4953221;28;87130;-45
2023/10/14 00:13:19;;;;;;;;;;;16.50;55.90;;;;;;4951622;28;87495;-43
2023/10/14 00:15:45;;;;;;;;;;;16.50;55.90;;;;;;4954657;28;87283;-46
2023/10/14 00:18:11;;;;;;;;;;;16.50;55.90;;;;;;4954075;28;87549;-44
2023/10/14 00:20:37;;;;;;;;;;;16.50;55.90;;;;;;4952713;28;88629;-42
2023/10/14 00:23:04;;;;;;;;;;;16.40;55.80;;;;;;4951812;28;88010;-48
2023/10/14 00:25:32;;;;;;;;;;;16.50;55.90;;;;;;4951903;28;88934;-43
2023/10/14 00:27:58;;;;;;;;;;;16.40;55.90;;;;;;4953635;28;88029;-43
2023/10/14 00:30:27;;;;;;;;;;;16.40;55.80;;;;;;4951013;28;87621;-43
2023/10/14 00:32:53;;;;;;;;;;;16.40;55.90;;;;;;4953434;28;87410;-42
2023/10/14 00:35:19;;;;;;;;;;;16.40;55.90;;;;;;4951298;28;88015;-45
2023/10/14 00:37:45;;;;;;;;;;;16.40;55.80;;;;;;4951737;28;87099;-46
2023/10/14 00:40:12;;;;;;;;;;;16.40;55.90;;;;;;4956484;28;87399;-45
2023/10/14 00:42:41;;;;;;;;;;;16.30;55.80;;;;;;4950688;28;87170;-42
2023/10/14 00:45:09;;;;;;;;;;;16.40;55.90;;;;;;4950995;28;89278;-45
2023/10/14 00:47:40;;;;;;;;;;;16.40;55.90;;;;;;4951894;28;88958;-46
2023/10/14 00:52:54;;;;;;;;;;;16.30;55.80;;;;;;4949413;28;87292;-44
2023/10/14 00:55:34;;;;;;;;;;;16.30;55.80;;;;;;4950839;28;89735;-45
2023/10/14 00:57:59;;;;;;;;;;;16.30;55.80;;;;;;4953919;28;87506;-43
2023/10/14 01:00:37;;;;;;;;;;;16.30;55.80;;;;;;4958128;28;87585;-46
2023/10/14 01:03:07;;;;;;;;;;;16.30;55.80;;;;;;4953486;28;87020;-48
2023/10/14 01:05:35;;;;;;;;;;;16.30;55.80;;;;;;4957109;28;88955;-44
2023/10/14 01:08:03;;;;;;;;;;;16.30;55.80;;;;;;4955613;28;88165;-44
2023/10/14 01:10:29;;;;;;;;;;;16.20;55.80;;;;;;4954293;28;87131;-44
2023/10/14 01:12:55;;;;;;;;;;;16.20;55.80;;;;;;4956242;28;89083;-44
2023/10/14 01:15:21;;;;;;;;;;;16.20;55.80;;;;;;4953411;28;89366;-47
2023/10/14 01:17:53;;;;;;;;;;;16.20;55.70;;;;;;4956263;28;87120;-45
2023/10/14 01:20:27;;;;;;;;;;;16.20;55.80;;;;;;4955942;28;88844;-47
2023/10/14 01:23:00;;;;;;;;;;;16.20;55.80;;;;;;4956285;28;89366;-45
2023/10/14 01:25:30;;;;;;;;;;;16.20;55.80;;;;;;4955528;28;87668;-44
2023/10/14 01:27:59;;;;;;;;;;;16.20;55.80;;;;;;4955628;28;90552;-45
2023/10/14 01:30:25;;;;;;;;;;;16.10;55.70;;;;;;4953814;28;86313;-47
2023/10/14 01:32:51;;;;;;;;;;;16.10;55.70;;;;;;4956303;28;87996;-49
2023/10/14 01:35:31;;;;;;;;;;;16.10;55.70;;;;;;4954206;28;88022;-42
2023/10/14 01:37:58;;;;;;;;;;;16.10;55.70;;;;;;4956291;28;88126;-44
2023/10/14 01:40:27;;;;;;;;;;;16.10;55.70;;;;;;4953768;28;87796;-45
2023/10/14 01:42:56;;;;;;;;;;;16.10;55.70;;;;;;4954842;28;89628;-45
2023/10/14 01:45:30;;;;;;;;;;;16.10;55.70;;;;;;4958569;28;86994;-45
2023/10/14 01:50:44;;;;;;;;;;;16.00;55.70;;;;;;4952537;28;87087;-49
2023/10/14 01:53:12;;;;;;;;;;;16.00;55.70;;;;;;4953264;28;88883;-45
2023/10/14 01:55:41;;;;;;;;;;;16.00;55.70;;;;;;4955262;28;88757;-46
2023/10/14 01:58:10;;;;;;;;;;;16.00;55.60;;;;;;4955023;28;87202;-46
2023/10/14 02:00:37;;;;;;;;;;;16.00;55.70;;;;;;4953012;28;87505;-45
2023/10/14 02:03:06;;;;;;;;;;;16.00;56.30;;;;;;4951628;28;88964;-45
2023/10/14 02:05:40;;;;;;;;;;;16.00;55.60;;;;;;4955115;28;87132;-45
2023/10/14 02:08:15;;;;;;;;;;;15.90;55.60;;;;;;4956883;28;88925;-48
2023/10/14 02:10:47;;;;;;;;;;;15.90;55.60;;;;;;4953390;28;87168;-45
2023/10/14 02:13:16;;;;;;;;;;;16.00;55.70;;;;;;4954280;28;87466;-42
2023/10/14 02:15:46;;;;;;;;;;;15.90;55.60;;;;;;4955445;28;88073;-49
2023/10/14 02:18:16;;;;;;;;;;;15.90;55.70;;;;;;4952822;28;87074;-45
2023/10/14 02:20:56;;;;;;;;;;;15.90;55.60;;;;;;4954811;28;88854;-44
2023/10/14 02:23:26;;;;;;;;;;;15.90;55.60;;;;;;4953249;28;89819;-42
2023/10/14 02:25:56;;;;;;;;;;;15.90;55.60;;;;;;4953536;28;87236;-45
2023/10/14 02:28:22;;;;;;;;;;;15.90;55.60;;;;;;4953138;28;87950;-46
2023/10/14 02:30:51;;;;;;;;;;;15.80;55.60;;;;;;4958028;28;88286;-44
2023/10/14 02:33:18;;;;;;;;;;;15.80;55.60;;;;;;4952447;28;89056;-47
2023/10/14 02:35:44;;;;;;;;;;;15.80;55.60;;;;;;4954901;28;88000;-46
2023/10/14 02:38:10;;;;;;;;;;;15.80;55.60;;;;;;4955450;28;87610;-43
2023/10/14 02:40:37;;;;;;;;;;;15.80;55.50;;;;;;4954465;28;87445;-45
2023/10/14 02:43:04;;;;;;;;;;;15.80;55.60;;;;;;4952597;28;89472;-42
2023/10/14 02:45:33;;;;;;;;;;;15.80;55.60;;;;;;4955927;28;86472;-45
2023/10/14 02:48:01;;;;;;;;;;;15.80;55.60;;;;;;4952881;28;87046;-46
2023/10/14 02:50:27;;;;;;;;;;;15.70;55.50;;;;;;4953994;28;89396;-44
2023/10/14 02:53:01;;;;;;;;;;;15.70;55.50;;;;;;4956303;28;88116;-45
2023/10/14 02:55:27;;;;;;;;;;;15.70;55.50;;;;;;4951799;28;89334;-45
2023/10/14 02:57:53;;;;;;;;;;;15.70;55.50;;;;;;4955040;28;87225;-45
2023/10/14 03:00:29;;;;;;;;;;;15.70;55.60;;;;;;4952956;28;87204;-46
2023/10/14 03:02:55;;;;;;;;;;;15.70;55.50;;;;;;4951970;28;90294;-45
2023/10/14 03:05:36;;;;;;;;;;;15.70;55.60;;;;;;4955570;28;87139;-44
2023/10/14 03:08:12;;;;;;;;;;;15.60;55.60;;;;;;4953495;28;88025;-46
2023/10/14 03:10:44;;;;;;;;;;;15.60;55.50;;;;;;4952589;28;87234;-45
2023/10/14 03:13:11;;;;;;;;;;;15.70;55.50;;;;;;4956271;28;87101;-45
2023/10/14 03:15:38;;;;;;;;;;;15.60;55.40;;;;;;4954088;28;88446;-45
2023/10/14 03:18:05;;;;;;;;;;;15.60;55.50;;;;;;4951195;28;88107;-46
2023/10/14 03:22:58;;;;;;;;;;;15.60;55.50;;;;;;4953956;28;88005;-43
2023/10/14 03:25:24;;;;;;;;;;;15.60;55.50;;;;;;4952999;28;87116;-47
2023/10/14 03:27:50;;;;;;;;;;;15.60;55.40;;;;;;4953334;28;87797;-45
2023/10/14 03:30:17;;;;;;;;;;;15.50;55.40;;;;;;4953783;28;87944;-43
2023/10/14 03:32:42;;;;;;;;;;;15.50;55.40;;;;;;4951836;28;87538;-44
2023/10/14 03:35:12;;;;;;;;;;;15.50;55.40;;;;;;4957967;28;87626;-45
2023/10/14 03:37:40;;;;;;;;;;;15.50;55.40;;;;;;4953238;28;87240;-43
2023/10/14 03:42:54;;;;;;;;;;;15.50;55.40;;;;;;4948683;28;88195;-47
2023/10/14 03:45:28;;;;;;;;;;;15.50;55.50;;;;;;4952780;28;87088;-43
2023/10/14 03:47:59;;;;;;;;;;;15.50;55.50;;;;;;4954684;28;88894;-44
2023/10/14 03:50:25;;;;;;;;;;;15.40;55.40;;;;;;4952034;28;89212;-45
2023/10/14 03:52:53;;;;;;;;;;;15.50;55.50;;;;;;4953635;28;87159;-45
2023/10/14 03:55:25;;;;;;;;;;;15.40;55.50;;;;;;4953524;28;88683;-46
2023/10/14 03:58:03;;;;;;;;;;;15.40;55.50;;;;;;4959183;28;89568;-44
2023/10/14 04:00:37;;;;;;;;;;;15.40;55.60;;;;;;4959950;28;89261;-43
2023/10/14 04:03:13;;;;;;;;;;;15.30;55.50;;;;;;4957285;28;88851;-45
2023/10/14 04:05:52;;;;;;;;;;;15.30;55.50;;;;;;4958766;28;88853;-45
2023/10/14 04:08:25;;;;;;;;;;;15.30;55.60;;;;;;4958195;28;89708;-45
2023/10/14 04:10:55;;;;;;;;;;;15.30;55.50;;;;;;4960656;28;88015;-44
2023/10/14 04:13:21;;;;;;;;;;;15.30;55.60;;;;;;4957156;28;87238;-45
2023/10/14 04:15:52;;;;;;;;;;;15.30;55.60;;;;;;4961404;28;87946;-43
2023/10/14 04:18:24;;;;;;;;;;;15.30;55.60;;;;;;4956137;28;89330;-43
2023/10/14 04:21:02;;;;;;;;;;;15.20;55.60;;;;;;4965369;28;87159;-44
2023/10/14 04:23:29;;;;;;;;;;;15.30;55.60;;;;;;4955547;28;89659;-45
2023/10/14 04:26:03;;;;;;;;;;;15.20;55.60;;;;;;4963148;28;86350;-44
2023/10/14 04:28:33;;;;;;;;;;;15.20;55.60;;;;;;4956169;28;88227;-44
2023/10/14 04:31:06;;;;;;;;;;;15.20;55.60;;;;;;4959767;28;89904;-45
2023/10/14 04:33:44;;;;;;;;;;;15.20;55.50;;;;;;4965495;28;89681;-44
2023/10/14 04:36:36;;;;;;;;;;;15.20;55.60;;;;;;4962747;28;89439;-42
2023/10/14 04:39:14;;;;;;;;;;;15.20;55.50;;;;;;4955847;28;87476;-49
2023/10/14 04:41:47;;;;;;;;;;;15.20;55.50;;;;;;4962735;28;88687;-46
2023/10/14 04:44:13;;;;;;;;;;;15.20;55.50;;;;;;4961995;28;89081;-45
2023/10/14 04:47:19;;;;;;;;;;;15.20;55.50;;;;;;4960983;28;87934;-42
2023/10/14 04:49:37;;;;;;;;;;;15.10;55.40;;;;;;4953296;28;88417;-47
2023/10/14 04:52:06;;;;;;;;;;;15.10;55.50;;;;;;4956990;28;88761;-48
2023/10/14 04:54:34;;;;;;;;;;;15.10;55.50;;;;;;4954996;28;87024;-47
2023/10/14 04:57:12;;;;;;;;;;;15.10;55.40;;;;;;4951522;28;87375;-45
2023/10/14 04:59:37;;;;;;;;;;;15.10;55.40;;;;;;4955899;28;89943;-43
2023/10/14 05:02:03;;;;;;;;;;;15.10;55.40;;;;;;4956874;28;87342;-45
2023/10/14 05:04:30;;;;;;;;;;;15.10;55.40;;;;;;4959977;28;87559;-43
2023/10/14 05:07:03;;;;;;;;;;;15.10;55.40;;;;;;4959992;28;90329;-44
2023/10/14 05:09:39;;;;;;;;;;;15.10;55.40;;;;;;4961874;28;87250;-42
2023/10/14 05:12:08;;;;;;;;;;;15.10;55.40;;;;;;4958887;28;89604;-45
2023/10/14 05:14:34;;;;;;;;;;;15.10;55.40;;;;;;4953268;28;87145;-45
2023/10/14 05:17:14;;;;;;;;;;;15.10;55.40;;;;;;4954857;28;88874;-44
2023/10/14 05:19:43;;;;;;;;;;;15.10;55.30;;;;;;4954001;28;87888;-44
2023/10/14 05:24:52;;;;;;;;;;;15.00;55.30;;;;;;4951323;28;88815;-46
2023/10/14 05:27:19;;;;;;;;;;;15.00;55.30;;;;;;4964161;28;87191;-43
2023/10/14 05:29:51;;;;;;;;;;;15.00;55.40;;;;;;4964419;28;87782;-42
2023/10/14 05:32:23;;;;;;;;;;;15.00;55.40;;;;;;4959780;28;88208;-44
2023/10/14 05:34:50;;;;;;;;;;;15.00;55.30;;;;;;4960086;28;87734;-46
2023/10/14 05:37:16;;;;;;;;;;;15.00;55.30;;;;;;4965754;28;87452;-45
2023/10/14 05:39:42;;;;;;;;;;;15.00;55.30;;;;;;4964090;28;88355;-44
2023/10/14 05:42:15;;;;;;;;;;;15.00;55.20;;;;;;4957583;28;87830;-43
2023/10/14 05:44:47;;;;;;;;;;;15.00;55.20;;;;;;4958223;28;88155;-43
2023/10/14 05:47:19;;;;;;;;;;;15.00;55.30;;;;;;4961303;28;89097;-43
2023/10/14 05:49:46;;;;;;;;;;;14.90;55.30;;;;;;4962406;28;88180;-41
2023/10/14 05:52:12;;;;;;;;;;;14.90;55.30;;;;;;4957095;28;88056;-44
2023/10/14 05:54:38;;;;;;;;;;;14.90;55.30;;;;;;4959553;28;88860;-43
2023/10/14 05:57:05;;;;;;;;;;;14.90;55.30;;;;;;4965850;28;87260;-46
2023/10/14 05:59:49;;;;;;;;;;;14.90;55.30;;;;;;4963987;28;88318;-42
2023/10/14 06:02:15;;;;;;;;;;;14.90;55.30;;;;;;4958332;28;87869;-42
2023/10/14 06:04:40;;;;;;;;;;;14.90;55.30;;;;;;4952957;28;88771;-46
2023/10/14 06:07:11;;;;;;;;;;;14.90;55.30;;;;;;4955572;28;87310;-43
2023/10/14 06:09:37;;;;;;;;;;;14.90;55.40;;;;;;4955894;28;87517;-45
2023/10/14 06:12:12;;;;;;;;;;;14.90;55.30;;;;;;4950162;28;88073;-45
2023/10/14 06:14:38;;;;;;;;;;;14.90;55.30;;;;;;4956528;28;88253;-43
2023/10/14 06:17:04;;;;;;;;;;;14.90;55.20;;;;;;4953264;28;88864;-45
2023/10/14 06:19:30;;;;;;;;;;;14.90;55.90;;;;;;4951412;28;88055;-47
2023/10/14 06:21:56;;;;;;;;;;;14.90;55.30;;;;;;4957041;28;87179;-44
2023/10/14 06:24:23;;;;;;;;;;;14.90;55.40;;;;;;4957880;28;87447;-48
2023/10/14 06:26:48;;;;;;;;;;;14.90;55.40;;;;;;4952368;28;88096;-42
2023/10/14 06:29:14;;;;;;;;;;;14.90;55.30;;;;;;4953987;28;87276;-47
2023/10/14 06:31:40;;;;;;;;;;;14.90;55.30;;;;;;4954105;28;88082;-46
2023/10/14 06:34:08;;;;;;;;;;;14.90;55.30;;;;;;4958404;28;88372;-46
2023/10/14 06:36:34;;;;;;;;;;;14.90;55.40;;;;;;4955394;28;89225;-43
2023/10/14 06:39:13;;;;;;;;;;;14.90;55.40;;;;;;4952928;28;89163;-46
2023/10/14 06:41:43;;;;;;;;;;;14.90;55.40;;;;;;4953499;28;87189;-45
2023/10/14 06:44:09;;;;;;;;;;;14.90;55.40;;;;;;4952063;28;89000;-44
2023/10/14 06:46:35;;;;;;;;;;;14.90;56.00;;;;;;4952547;28;88064;-45
2023/10/14 06:49:01;;;;;;;;;;;14.90;55.30;;;;;;4950381;28;87576;-46
2023/10/14 06:51:27;;;;;;;;;;;14.80;55.30;;;;;;4952842;28;87882;-45
2023/10/14 06:53:52;;;;;;;;;;;14.80;55.40;;;;;;4960045;28;89159;-43
2023/10/14 06:56:20;;;;;;;;;;;14.80;55.40;;;;;;4960541;28;86570;-46
2023/10/14 06:58:46;;;;;;;;;;;14.90;55.40;;;;;;4957644;28;89141;-44
2023/10/14 07:01:12;;;;;;;;;;;14.90;55.50;;;;;;4959946;28;87170;-46
2023/10/14 07:03:38;;;;;;;;;;;14.90;55.60;;;;;;4953929;28;88086;-47
2023/10/14 07:06:04;;;;;;;;;;;14.90;55.60;;;;;;4957017;28;88017;-46
2023/10/14 07:08:32;;;;;;;;;;;14.90;55.60;;;;;;4951455;28;88899;-44
2023/10/14 07:11:00;;;;;;;;;;;14.80;55.60;;;;;;4952782;28;87998;-46
2023/10/14 07:13:27;;;;;;;;;;;14.80;55.70;;;;;;4954694;28;88376;-42
2023/10/14 07:15:53;;;;;;;;;;;14.90;55.70;;;;;;4951232;28;87353;-43
2023/10/14 07:18:23;;;;;;;;;;;14.90;55.70;;;;;;4958032;28;89038;-45
2023/10/14 07:21:14;;;;;;;;;;;14.80;55.60;;;;;;4959336;28;86544;-46
2023/10/14 07:23:40;;;;;;;;;;;14.90;55.70;;;;;;4956115;28;87220;-43
2023/10/14 07:26:10;;;;;;;;;;;14.90;55.80;;;;;;4950359;28;88014;-46
2023/10/14 07:28:36;;;;;;;;;;;14.90;55.70;;;;;;4945311;28;89223;-44
2023/10/14 07:31:01;;;;;;;;;;;14.90;55.80;;;;;;4955794;28;88334;-47
2023/10/14 07:33:29;;;;;;;;;;;14.80;55.90;;;;;;4954760;28;88847;-48
2023/10/14 07:35:57;;;;;;;;;;;14.80;55.90;;;;;;4955645;28;87227;-46
2023/10/14 07:38:23;;;;;;;;;;;14.80;55.90;;;;;;4956050;28;87368;-45
2023/10/14 07:40:49;;;;;;;;;;;14.80;55.90;;;;;;4954473;28;87202;-46
2023/10/14 07:43:15;;;;;;;;;;;14.80;55.90;;;;;;4954480;28;87752;-47
2023/10/14 07:45:46;;;;;;;;;;;14.80;55.90;;;;;;4952949;28;87363;-44
2023/10/14 07:48:12;;;;;;;;;;;14.80;55.90;;;;;;4948670;28;87168;-45
2023/10/14 07:50:37;;;;;;;;;;;14.80;56.20;;;;;;4954245;28;87836;-45
2023/10/14 07:53:12;;;;;;;;;;;14.80;56.10;;;;;;4952900;28;90204;-44
2023/10/14 07:55:47;;;;;;;;;;;14.80;56.10;;;;;;4953090;28;87824;-42
2023/10/14 07:58:13;;;;;;;;;;;14.80;56.10;;;;;;4949961;28;88068;-45
2023/10/14 08:00:41;;;;;;;;;;;14.80;56.30;;;;;;4957086;28;88181;-45
2023/10/14 08:03:09;;;;;;;;;;;14.70;56.30;;;;;;4953085;28;88724;-46
2023/10/14 08:05:38;;;;;;;;;;;14.80;56.30;;;;;;4950844;28;89578;-42
2023/10/14 08:08:07;;;;;;;;;;;14.80;56.30;;;;;;4953894;28;87123;-47
2023/10/14 08:10:32;;;;;;;;;;;14.70;56.30;;;;;;4951767;28;87872;-44
2023/10/14 08:13:04;;;;;;;;;;;14.80;56.30;;;;;;4953918;28;89478;-47
2023/10/14 08:15:30;;;;;;;;;;;14.80;56.50;;;;;;4950102;28;87172;-43
2023/10/14 08:17:58;;;;;;;;;;;14.70;56.30;;;;;;4956092;28;88533;-45
2023/10/14 08:20:23;;;;;;;;;;;14.70;56.30;;;;;;4951433;28;87604;-46
2023/10/14 08:22:49;;;;;;;;;;;14.80;56.40;;;;;;4957515;28;87162;-46
2023/10/14 08:25:18;;;;;;;;;;;14.80;56.30;;;;;;4951200;28;88731;-45
2023/10/14 08:27:44;;;;;;;;;;;14.80;56.30;;;;;;4951977;28;87539;-45
2023/10/14 08:30:11;;;;;;;;;;;14.80;56.40;;;;;;4954160;28;88790;-43
2023/10/14 08:32:39;;;;;;;;;;;14.80;56.50;;;;;;4955618;28;88479;-49
2023/10/14 08:35:14;;;;;;;;;;;14.80;56.40;;;;;;4952962;28;86955;-45
2023/10/14 08:37:47;;;;;;;;;;;14.80;56.50;;;;;;4952665;28;88756;-42
2023/10/14 08:40:16;;;;;;;;;;;14.80;56.50;;;;;;4956771;28;89829;-45
2023/10/14 08:43:05;;;;;;;;;;;14.80;56.50;;;;;;4948247;28;89241;-43
2023/10/14 08:45:35;;;;;;;;;;;14.80;56.50;;;;;;4956087;28;89837;-43
2023/10/14 08:48:02;;;;;;;;;;;14.80;56.40;;;;;;4950923;28;87105;-44
2023/10/14 08:50:32;;;;;;;;;;;14.90;56.50;;;;;;4953829;28;87063;-44
2023/10/14 08:53:00;;;;;;;;;;;14.80;56.50;;;;;;4950491;28;90805;-45
2023/10/14 08:55:28;;;;;;;;;;;14.80;56.50;;;;;;4959287;28;87232;-48
2023/10/14 08:58:01;;;;;;;;;;;14.90;56.60;;;;;;4950690;28;88778;-43
2023/10/14 09:00:29;;;;;;;;;;;14.80;56.60;;;;;;4955636;28;88672;-44
2023/10/14 09:02:55;;;;;;;;;;;14.80;56.60;;;;;;4948188;28;87565;-46
2023/10/14 09:05:21;;;;;;;;;;;14.80;56.60;;;;;;4953985;28;87508;-49
2023/10/14 09:07:51;;;;;;;;;;;14.80;56.50;;;;;;4952576;28;88976;-44
2023/10/14 09:10:18;;;;;;;;;;;14.90;56.60;;;;;;4948273;28;89026;-42
2023/10/14 09:12:55;;;;;;;;;;;14.90;56.60;;;;;;4953318;28;88058;-45
2023/10/14 09:15:22;;;;;;;;;;;14.90;56.50;;;;;;4950020;28;87127;-47
2023/10/14 09:17:48;;;;;;;;;;;14.90;56.50;;;;;;4954857;28;88421;-45
2023/10/14 09:20:33;;;;;;;;;;;14.90;56.50;;;;;;4953982;28;88887;-46
2023/10/14 09:23:14;;;;;;;;;;;14.90;56.50;;;;;;4958693;28;87143;-44
2023/10/14 09:25:44;;;;;;;;;;;14.90;56.50;;;;;;4957088;28;87504;-43
2023/10/14 09:28:10;;;;;;;;;;;14.90;56.50;;;;;;4956404;28;89572;-43
2023/10/14 09:30:36;;;;;;;;;;;14.90;56.50;;;;;;4956893;28;87047;-44
2023/10/14 09:33:02;;;;;;;;;;;14.90;56.50;;;;;;4956573;28;89418;-47
2023/10/14 09:35:30;;;;;;;;;;;14.90;56.40;;;;;;4954410;28;87722;-47
2023/10/14 09:37:59;;;;;;;;;;;14.90;56.40;;;;;;4952842;28;87864;-45
2023/10/14 09:40:25;;;;;;;;;;;15.00;56.50;;;;;;4951997;28;89644;-43
2023/10/14 09:42:52;;;;;;;;;;;15.00;56.50;;;;;;4955907;28;87083;-45
2023/10/14 09:45:19;;;;;;;;;;;15.00;56.60;;;;;;4954808;28;87572;-42
2023/10/14 09:47:45;;;;;;;;;;;15.00;56.70;;;;;;4952449;28;89535;-43
2023/10/14 09:50:13;;;;;;;;;;;15.00;56.60;;;;;;4954875;28;86441;-42
2023/10/14 09:52:42;;;;;;;;;;;15.00;56.80;;;;;;4952651;28;87172;-45
2023/10/14 09:55:13;;;;;;;;;;;15.00;56.80;;;;;;4954587;28;88238;-43
2023/10/14 09:57:42;;;;;;;;;;;15.00;56.80;;;;;;4951864;28;89447;-47
2023/10/14 10:00:08;;;;;;;;;;;15.10;57.00;;;;;;4952255;28;87968;-42
2023/10/14 10:02:34;;;;;;;;;;;15.10;57.00;;;;;;4955637;28;87085;-43
2023/10/14 10:05:01;;;;;;;;;;;15.10;57.00;;;;;;4955520;28;87616;-49
2023/10/14 10:07:33;;;;;;;;;;;15.10;57.10;;;;;;4952592;28;88659;-46
2023/10/14 10:10:01;;;;;;;;;;;15.10;57.10;;;;;;4957269;28;87101;-43
2023/10/14 10:12:28;;;;;;;;;;;15.10;57.10;;;;;;4955471;28;88798;-45
2023/10/14 10:14:58;;;;;;;;;;;15.10;57.20;;;;;;4949278;28;86371;-45
2023/10/14 10:17:24;;;;;;;;;;;15.10;57.20;;;;;;4955523;28;88350;-45
2023/10/14 10:20:08;;;;;;;;;;;15.20;57.30;;;;;;4956050;28;87971;-43
2023/10/14 10:22:39;;;;;;;;;;;15.20;57.10;;;;;;4953442;28;88317;-43
2023/10/14 10:25:05;;;;;;;;;;;15.20;57.10;;;;;;4954338;28;90006;-44
2023/10/14 10:27:31;;;;;;;;;;;15.20;57.10;;;;;;4952617;28;89514;-45
2023/10/14 10:30:04;;;;;;;;;;;15.30;57.20;;;;;;4955930;28;86896;-45
2023/10/14 10:32:30;;;;;;;;;;;15.20;57.10;;;;;;4952799;28;88785;-42
2023/10/14 10:35:05;;;;;;;;;;;15.30;57.20;;;;;;4959009;28;88105;-46
2023/10/14 10:37:40;;;;;;;;;;;15.30;57.20;;;;;;4953629;28;88779;-47
2023/10/14 10:40:12;;;;;;;;;;;15.30;57.50;;;;;;4953934;28;87328;-47
2023/10/14 10:42:39;;;;;;;;;;;15.30;56.90;;;;;;4951467;28;87116;-45
2023/10/14 10:45:09;;;;;;;;;;;15.30;56.80;;;;;;4954969;28;87465;-48
2023/10/14 10:47:45;;;;;;;;;;;15.30;56.90;;;;;;4953750;28;88936;-48
2023/10/14 10:50:14;;;;;;;;;;;15.30;56.90;;;;;;4956048;28;87080;-46
2023/10/14 10:52:40;;;;;;;;;;;15.40;56.90;;;;;;4951753;28;88903;-42
2023/10/14 10:55:06;;;;;;;;;;;15.40;57.10;;;;;;4955978;28;87733;-44
2023/10/14 10:57:32;;;;;;;;;;;15.40;56.90;;;;;;4957477;28;87494;-44
2023/10/14 10:59:58;;;;;;;;;;;15.40;57.00;;;;;;4953904;28;89346;-45
2023/10/14 11:02:24;;;;;;;;;;;15.40;56.90;;;;;;4952590;28;87594;-44
2023/10/14 11:04:49;;;;;;;;;;;15.50;56.90;;;;;;4957421;28;88689;-42
2023/10/14 11:07:17;;;;;;;;;;;15.50;56.80;;;;;;4952065;28;87116;-45
2023/10/14 11:09:43;;;;;;;;;;;15.50;56.90;;;;;;4953236;28;87172;-45
2023/10/14 11:12:10;;;;;;;;;;;15.50;56.80;;;;;;4951674;28;88881;-44
2023/10/14 11:14:35;;;;;;;;;;;15.50;56.80;;;;;;4954826;28;88188;-43
2023/10/14 11:17:01;;;;;;;;;;;15.60;57.00;;;;;;4953224;28;87116;-45
2023/10/14 11:19:30;;;;;;;;;;;15.60;57.00;;;;;;4956375;28;87896;-44
2023/10/14 11:21:58;;;;;;;;;;;15.60;57.00;;;;;;4948533;28;87740;-43
2023/10/14 11:24:24;;;;;;;;;;;15.60;57.10;;;;;;4956333;28;87140;-43
2023/10/14 11:26:50;;;;;;;;;;;15.60;57.10;;;;;;4952214;28;89255;-42
2023/10/14 11:29:16;;;;;;;;;;;15.60;57.00;;;;;;4958356;28;87046;-45
2023/10/14 11:31:44;;;;;;;;;;;15.70;57.00;;;;;;4949854;28;88067;-48
2023/10/14 11:34:13;;;;;;;;;;;15.70;56.90;;;;;;4954416;28;88500;-46
2023/10/14 11:36:42;;;;;;;;;;;15.70;56.90;;;;;;4950801;28;88093;-44
2023/10/14 11:39:13;;;;;;;;;;;15.70;56.80;;;;;;4955020;28;88360;-46
2023/10/14 11:41:40;;;;;;;;;;;15.70;56.90;;;;;;4953937;28;88183;-43
2023/10/14 11:44:06;;;;;;;;;;;15.80;56.90;;;;;;4956127;28;87396;-44
2023/10/14 11:46:34;;;;;;;;;;;15.80;56.90;;;;;;4952920;28;87712;-47
2023/10/14 11:48:59;;;;;;;;;;;15.80;56.90;;;;;;4954347;28;87141;-46
2023/10/14 11:51:29;;;;;;;;;;;15.80;56.90;;;;;;4956281;28;88183;-44
2023/10/14 11:53:56;;;;;;;;;;;15.80;56.80;;;;;;4952276;28;88695;-41
2023/10/14 11:56:22;;;;;;;;;;;15.90;56.90;;;;;;4952665;28;87530;-45
2023/10/14 11:58:49;;;;;;;;;;;15.90;56.80;;;;;;4953028;28;88824;-41
2023/10/14 12:01:15;;;;;;;;;;;15.90;56.90;;;;;;4955529;28;88062;-46
2023/10/14 12:03:40;;;;;;;;;;;15.90;56.80;;;;;;4951215;28;89067;-44
2023/10/14 12:06:07;;;;;;;;;;;15.90;56.80;;;;;;4949656;28;89442;-45
2023/10/14 12:08:39;;;;;;;;;;;15.90;56.80;;;;;;4950967;28;87235;-44
2023/10/14 12:11:05;;;;;;;;;;;16.00;56.80;;;;;;4958607;28;87339;-46
2023/10/14 12:13:31;;;;;;;;;;;16.00;56.80;;;;;;4953881;28;87691;-46
2023/10/14 12:15:57;;;;;;;;;;;16.00;56.80;;;;;;4951552;28;87171;-46
2023/10/14 12:18:22;;;;;;;;;;;16.00;56.90;;;;;;4956946;28;87707;-43
2023/10/14 12:20:48;;;;;;;;;;;16.00;56.80;;;;;;4952141;28;87618;-47
2023/10/14 12:23:20;;;;;;;;;;;16.00;56.80;;;;;;4958873;28;87202;-47
2023/10/14 12:25:46;;;;;;;;;;;16.10;56.90;;;;;;4948252;28;90263;-43
2023/10/14 12:28:17;;;;;;;;;;;16.10;56.80;;;;;;4952675;28;87123;-44
2023/10/14 12:30:43;;;;;;;;;;;16.10;56.80;;;;;;4952311;28;89383;-45
2023/10/14 12:33:18;;;;;;;;;;;16.10;57.00;;;;;;4955029;28;88308;-46
2023/10/14 12:35:51;;;;;;;;;;;16.20;56.90;;;;;;4950735;28;87202;-44
2023/10/14 12:38:20;;;;;;;;;;;16.20;56.90;;;;;;4954150;28;88902;-45
2023/10/14 12:40:48;;;;;;;;;;;16.20;56.90;;;;;;4951277;28;88014;-45
2023/10/14 12:43:15;;;;;;;;;;;16.20;56.90;;;;;;4949232;28;86512;-46
2023/10/14 12:45:43;;;;;;;;;;;16.20;56.90;;;;;;4953441;28;88224;-44
2023/10/14 12:48:09;;;;;;;;;;;16.20;56.80;;;;;;4951973;28;87233;-43
2023/10/14 12:50:40;;;;;;;;;;;16.20;56.80;;;;;;4951624;28;89417;-45
2023/10/14 12:53:08;;;;;;;;;;;16.30;56.90;;;;;;4953974;28;89450;-45
2023/10/14 12:55:34;;;;;;;;;;;16.30;56.80;;;;;;4955903;28;87145;-45
2023/10/14 12:58:01;;;;;;;;;;;16.30;57.00;;;;;;4956047;28;87118;-43
2023/10/14 13:00:30;;;;;;;;;;;16.30;56.80;;;;;;4956157;28;87896;-42
2023/10/14 13:02:59;;;;;;;;;;;16.30;56.90;;;;;;4951560;28;89120;-45
2023/10/14 13:05:28;;;;;;;;;;;16.40;56.80;;;;;;4957051;28;88002;-46
2023/10/14 13:07:54;;;;;;;;;;;16.40;56.90;;;;;;4959327;28;87452;-42
2023/10/14 13:10:20;;;;;;;;;;;16.40;56.80;;;;;;4954153;28;88121;-42
2023/10/14 13:12:49;;;;;;;;;;;16.40;56.90;;;;;;4952568;28;88363;-44
2023/10/14 13:15:25;;;;;;;;;;;16.40;56.80;;;;;;4960956;28;88159;-43
2023/10/14 13:17:57;;;;;;;;;;;16.40;56.80;;;;;;4962349;28;88323;-45
2023/10/14 13:20:30;;;;;;;;;;;16.50;56.90;;;;;;4951922;28;88074;-44
2023/10/14 13:22:56;;;;;;;;;;;16.50;56.90;;;;;;4960187;28;87251;-44
2023/10/14 13:25:22;;;;;;;;;;;16.50;56.80;;;;;;4954284;28;87551;-43
2023/10/14 13:27:51;;;;;;;;;;;16.50;56.90;;;;;;4954887;28;89343;-46
2023/10/14 13:30:22;;;;;;;;;;;16.50;56.90;;;;;;4955011;28;87630;-49
2023/10/14 13:32:54;;;;;;;;;;;16.50;56.90;;;;;;4958814;28;88650;-45
2023/10/14 13:35:20;;;;;;;;;;;16.60;56.80;;;;;;4953840;28;87046;-47
2023/10/14 13:37:46;;;;;;;;;;;16.60;56.80;;;;;;4954578;28;89056;-43
2023/10/14 13:40:12;;;;;;;;;;;16.60;56.90;;;;;;4953501;28;89338;-48
2023/10/14 13:42:38;;;;;;;;;;;16.60;56.80;;;;;;4955622;28;87263;-44
2023/10/14 13:45:04;;;;;;;;;;;16.60;56.90;;;;;;4956725;28;87507;-47
2023/10/14 13:47:31;;;;;;;;;;;16.60;56.80;;;;;;4954165;28;88064;-43
2023/10/14 13:49:58;;;;;;;;;;;16.60;56.80;;;;;;4955963;28;87190;-43
2023/10/14 13:52:24;;;;;;;;;;;16.70;56.90;;;;;;4953996;28;89033;-46
2023/10/14 13:54:49;;;;;;;;;;;16.70;56.90;;;;;;4954267;28;87376;-46
2023/10/14 13:57:17;;;;;;;;;;;16.70;56.90;;;;;;4954703;28;87066;-46
2023/10/14 13:59:43;;;;;;;;;;;16.70;56.80;;;;;;4958917;28;89883;-46
2023/10/14 14:02:09;;;;;;;;;;;16.70;56.80;;;;;;4953201;28;87245;-44
2023/10/14 14:04:34;;;;;;;;;;;16.80;56.90;;;;;;4953763;28;88177;-47
2023/10/14 14:07:01;;;;;;;;;;;16.80;57.00;;;;;;4951134;28;87920;-43
2023/10/14 14:09:30;;;;;;;;;;;16.80;57.00;;;;;;4955869;28;87707;-43
2023/10/14 14:11:56;;;;;;;;;;;16.80;56.90;;;;;;4959193;28;88013;-43
2023/10/14 14:14:22;;;;;;;;;;;16.80;56.90;;;;;;4953667;28;87418;-43
2023/10/14 14:16:51;;;;;;;;;;;16.80;56.90;;;;;;4951927;28;87704;-44
2023/10/14 14:19:19;;;;;;;;;;;16.80;56.90;;;;;;4955213;28;87318;-44
2023/10/14 14:21:47;;;;;;;;;;;16.90;56.90;;;;;;4954823;28;86758;-47
2023/10/14 14:24:14;;;;;;;;;;;16.90;56.90;;;;;;4953675;28;87012;-45
2023/10/14 14:26:41;;;;;;;;;;;16.90;57.00;;;;;;4948419;28;89794;-47
2023/10/14 14:29:09;;;;;;;;;;;16.90;56.80;;;;;;4954244;28;88183;-46
2023/10/14 14:31:35;;;;;;;;;;;16.90;56.90;;;;;;4953634;28;89957;-44
2023/10/14 14:34:01;;;;;;;;;;;16.90;56.80;;;;;;4956624;28;89367;-43
2023/10/14 14:36:27;;;;;;;;;;;16.90;57.00;;;;;;4948171;28;87371;-44
2023/10/14 14:38:54;;;;;;;;;;;17.00;56.90;;;;;;4955205;28;89829;-45